sensor_id;sensor_type;location;lat;lon;timestamp;P1;durP1;ratioP1;P2;durP2;ratioP2
19877;SDS011;10101;52.204;9.910;2023-01-31T00:00:23;11.40;;;2.03;;
19877;SDS011;10101;52.204;9.910;2023-01-31T00:02:50;9.03;;;2.53;;
19877;SDS011;10101;52.204;9.910;2023-01-31T00:05:17;8.47;;;1.60;;
19877;SDS011;10101;52.204;9.910;2023-01-31T00:07:44;14.40;;;2.10;;
19877;SDS011;10101;52.204;9.910;2023-01-31T00:10:13;19.00;;;1.70;;
19877;SDS011;10101;52.204;9.910;2023-01-31T00:12:42;11.77;;;1.37;;
19877;SDS011;10101;52.204;9.910;2023-01-31T00:15:08;10.27;;;2.10;;
19877;SDS011;10101;52.204;9.910;2023-01-31T00:17:37;16.77;;;2.03;;
19877;SDS011;10101;52.204;9.910;2023-01-31T00:20:04;12.53;;;1.97;;
19877;SDS011;10101;52.204;9.910;2023-01-31T00:22:32;9.97;;;1.63;;
19877;SDS011;10101;52.204;9.910;2023-01-31T00:24:59;12.10;;;2.10;;
19877;SDS011;10101;52.204;9.910;2023-01-31T00:27:25;13.17;;;1.77;;
19877;SDS011;10101;52.204;9.910;2023-01-31T00:29:53;13.70;;;2.33;;
19877;SDS011;10101;52.204;9.910;2023-01-31T00:32:20;13.30;;;2.03;;
19877;SDS011;10101;52.204;9.910;2023-01-31T00:34:47;8.53;;;1.23;;
19877;SDS011;10101;52.204;9.910;2023-01-31T00:37:13;11.47;;;1.97;;
19877;SDS011;10101;52.204;9.910;2023-01-31T00:39:40;8.43;;;1.40;;
19877;SDS011;10101;52.204;9.910;2023-01-31T00:42:07;4.40;;;1.43;;
19877;SDS011;10101;52.204;9.910;2023-01-31T00:44:34;9.97;;;1.83;;
19877;SDS011;10101;52.204;9.910;2023-01-31T00:47:02;2.37;;;0.77;;
19877;SDS011;10101;52.204;9.910;2023-01-31T00:49:28;6.37;;;1.43;;
19877;SDS011;10101;52.204;9.910;2023-01-31T00:51:55;5.13;;;1.30;;
19877;SDS011;10101;52.204;9.910;2023-01-31T00:54:22;6.90;;;1.40;;
19877;SDS011;10101;52.204;9.910;2023-01-31T00:56:49;7.47;;;1.30;;
19877;SDS011;10101;52.204;9.910;2023-01-31T00:59:16;6.97;;;1.57;;
19877;SDS011;10101;52.204;9.910;2023-01-31T01:01:42;4.57;;;1.03;;
19877;SDS011;10101;52.204;9.910;2023-01-31T01:04:11;7.03;;;1.43;;
19877;SDS011;10101;52.204;9.910;2023-01-31T01:06:38;5.57;;;1.13;;
19877;SDS011;10101;52.204;9.910;2023-01-31T01:09:06;7.20;;;1.30;;
19877;SDS011;10101;52.204;9.910;2023-01-31T01:11:33;9.43;;;1.87;;
19877;SDS011;10101;52.204;9.910;2023-01-31T01:14:00;12.07;;;1.47;;
19877;SDS011;10101;52.204;9.910;2023-01-31T01:16:30;11.87;;;1.33;;
19877;SDS011;10101;52.204;9.910;2023-01-31T01:18:59;6.70;;;0.90;;
19877;SDS011;10101;52.204;9.910;2023-01-31T01:21:29;6.60;;;1.53;;
19877;SDS011;10101;52.204;9.910;2023-01-31T01:23:57;5.97;;;1.13;;
19877;SDS011;10101;52.204;9.910;2023-01-31T01:26:26;7.57;;;1.53;;
19877;SDS011;10101;52.204;9.910;2023-01-31T01:28:54;8.53;;;1.77;;
19877;SDS011;10101;52.204;9.910;2023-01-31T01:31:22;8.63;;;1.70;;
19877;SDS011;10101;52.204;9.910;2023-01-31T01:33:54;6.67;;;1.20;;
19877;SDS011;10101;52.204;9.910;2023-01-31T01:36:22;8.50;;;1.57;;
19877;SDS011;10101;52.204;9.910;2023-01-31T01:38:51;9.90;;;1.37;;
19877;SDS011;10101;52.204;9.910;2023-01-31T01:41:18;13.13;;;2.50;;
19877;SDS011;10101;52.204;9.910;2023-01-31T01:43:46;13.73;;;2.47;;
19877;SDS011;10101;52.204;9.910;2023-01-31T01:46:15;6.97;;;1.73;;
19877;SDS011;10101;52.204;9.910;2023-01-31T01:48:45;9.10;;;1.60;;
19877;SDS011;10101;52.204;9.910;2023-01-31T01:51:15;6.73;;;1.27;;
19877;SDS011;10101;52.204;9.910;2023-01-31T01:53:44;7.93;;;1.50;;
19877;SDS011;10101;52.204;9.910;2023-01-31T01:56:16;14.17;;;2.00;;
19877;SDS011;10101;52.204;9.910;2023-01-31T01:58:50;9.20;;;1.80;;
19877;SDS011;10101;52.204;9.910;2023-01-31T02:01:22;16.67;;;2.20;;
19877;SDS011;10101;52.204;9.910;2023-01-31T02:03:51;13.20;;;2.50;;
19877;SDS011;10101;52.204;9.910;2023-01-31T02:06:18;9.40;;;1.47;;
19877;SDS011;10101;52.204;9.910;2023-01-31T02:08:46;9.37;;;1.77;;
19877;SDS011;10101;52.204;9.910;2023-01-31T02:11:16;11.27;;;1.80;;
19877;SDS011;10101;52.204;9.910;2023-01-31T02:13:48;8.63;;;2.00;;
19877;SDS011;10101;52.204;9.910;2023-01-31T02:16:17;12.70;;;1.87;;
19877;SDS011;10101;52.204;9.910;2023-01-31T02:18:43;7.40;;;2.03;;
19877;SDS011;10101;52.204;9.910;2023-01-31T02:21:25;10.60;;;2.30;;
19877;SDS011;10101;52.204;9.910;2023-01-31T02:24:21;11.53;;;2.10;;
19877;SDS011;10101;52.204;9.910;2023-01-31T02:27:11;8.67;;;1.27;;
19877;SDS011;10101;52.204;9.910;2023-01-31T02:30:02;12.03;;;1.47;;
19877;SDS011;10101;52.204;9.910;2023-01-31T02:33:03;10.70;;;1.73;;
19877;SDS011;10101;52.204;9.910;2023-01-31T02:35:41;15.70;;;2.00;;
19877;SDS011;10101;52.204;9.910;2023-01-31T02:38:20;7.47;;;1.30;;
19877;SDS011;10101;52.204;9.910;2023-01-31T02:40:58;7.77;;;1.63;;
19877;SDS011;10101;52.204;9.910;2023-01-31T02:43:35;9.73;;;1.13;;
19877;SDS011;10101;52.204;9.910;2023-01-31T02:46:23;5.30;;;1.00;;
19877;SDS011;10101;52.204;9.910;2023-01-31T02:48:59;5.50;;;1.10;;
19877;SDS011;10101;52.204;9.910;2023-01-31T02:51:32;3.83;;;1.30;;
19877;SDS011;10101;52.204;9.910;2023-01-31T02:54:07;7.70;;;1.30;;
19877;SDS011;10101;52.204;9.910;2023-01-31T02:56:38;8.03;;;1.20;;
19877;SDS011;10101;52.204;9.910;2023-01-31T02:59:09;5.70;;;1.10;;
19877;SDS011;10101;52.204;9.910;2023-01-31T03:01:40;6.67;;;1.47;;
19877;SDS011;10101;52.204;9.910;2023-01-31T03:04:11;5.10;;;1.13;;
19877;SDS011;10101;52.204;9.910;2023-01-31T03:06:54;4.20;;;1.10;;
19877;SDS011;10101;52.204;9.910;2023-01-31T03:09:32;5.90;;;1.20;;
19877;SDS011;10101;52.204;9.910;2023-01-31T03:12:06;7.17;;;1.40;;
19877;SDS011;10101;52.204;9.910;2023-01-31T03:14:44;5.60;;;1.30;;
19877;SDS011;10101;52.204;9.910;2023-01-31T03:17:19;11.10;;;2.10;;
19877;SDS011;10101;52.204;9.910;2023-01-31T03:20:01;12.07;;;1.97;;
19877;SDS011;10101;52.204;9.910;2023-01-31T03:22:34;4.87;;;1.37;;
19877;SDS011;10101;52.204;9.910;2023-01-31T03:25:03;11.57;;;2.00;;
19877;SDS011;10101;52.204;9.910;2023-01-31T03:27:32;10.57;;;2.07;;
19877;SDS011;10101;52.204;9.910;2023-01-31T03:30:01;10.57;;;1.77;;
19877;SDS011;10101;52.204;9.910;2023-01-31T03:32:33;8.33;;;1.90;;
19877;SDS011;10101;52.204;9.910;2023-01-31T03:35:06;7.37;;;1.53;;
19877;SDS011;10101;52.204;9.910;2023-01-31T03:37:36;8.97;;;1.67;;
19877;SDS011;10101;52.204;9.910;2023-01-31T03:40:07;8.70;;;1.60;;
19877;SDS011;10101;52.204;9.910;2023-01-31T03:42:39;9.07;;;1.60;;
19877;SDS011;10101;52.204;9.910;2023-01-31T03:45:11;10.17;;;1.70;;
19877;SDS011;10101;52.204;9.910;2023-01-31T03:47:44;12.37;;;1.80;;
19877;SDS011;10101;52.204;9.910;2023-01-31T03:50:14;10.80;;;2.20;;
19877;SDS011;10101;52.204;9.910;2023-01-31T03:52:45;18.77;;;2.50;;
19877;SDS011;10101;52.204;9.910;2023-01-31T03:55:18;14.97;;;2.07;;
19877;SDS011;10101;52.204;9.910;2023-01-31T03:57:48;9.33;;;1.87;;
19877;SDS011;10101;52.204;9.910;2023-01-31T04:00:19;10.03;;;2.30;;
19877;SDS011;10101;52.204;9.910;2023-01-31T04:02:49;9.60;;;1.60;;
19877;SDS011;10101;52.204;9.910;2023-01-31T04:05:22;11.37;;;1.87;;
19877;SDS011;10101;52.204;9.910;2023-01-31T04:07:54;8.70;;;2.50;;
19877;SDS011;10101;52.204;9.910;2023-01-31T04:10:21;11.40;;;2.00;;
19877;SDS011;10101;52.204;9.910;2023-01-31T04:12:48;8.60;;;1.90;;
19877;SDS011;10101;52.204;9.910;2023-01-31T04:15:15;9.50;;;2.27;;
19877;SDS011;10101;52.204;9.910;2023-01-31T04:17:42;4.17;;;1.57;;
19877;SDS011;10101;52.204;9.910;2023-01-31T04:20:09;14.57;;;2.23;;
19877;SDS011;10101;52.204;9.910;2023-01-31T04:22:38;8.17;;;1.70;;
19877;SDS011;10101;52.204;9.910;2023-01-31T04:25:05;10.83;;;1.97;;
19877;SDS011;10101;52.204;9.910;2023-01-31T04:27:32;8.00;;;1.63;;
19877;SDS011;10101;52.204;9.910;2023-01-31T04:29:59;8.30;;;1.60;;
19877;SDS011;10101;52.204;9.910;2023-01-31T04:32:26;9.73;;;1.37;;
19877;SDS011;10101;52.204;9.910;2023-01-31T04:34:52;9.30;;;1.63;;
19877;SDS011;10101;52.204;9.910;2023-01-31T04:37:19;11.60;;;1.80;;
19877;SDS011;10101;52.204;9.910;2023-01-31T04:39:47;11.63;;;1.60;;
19877;SDS011;10101;52.204;9.910;2023-01-31T04:42:14;10.93;;;1.87;;
19877;SDS011;10101;52.204;9.910;2023-01-31T04:44:41;8.20;;;1.83;;
19877;SDS011;10101;52.204;9.910;2023-01-31T04:47:08;8.70;;;1.63;;
19877;SDS011;10101;52.204;9.910;2023-01-31T04:49:34;11.20;;;2.10;;
19877;SDS011;10101;52.204;9.910;2023-01-31T04:52:01;8.07;;;1.60;;
19877;SDS011;10101;52.204;9.910;2023-01-31T04:54:28;14.07;;;1.90;;
19877;SDS011;10101;52.204;9.910;2023-01-31T04:56:56;9.57;;;1.53;;
19877;SDS011;10101;52.204;9.910;2023-01-31T04:59:22;6.17;;;1.50;;
19877;SDS011;10101;52.204;9.910;2023-01-31T05:01:49;12.00;;;1.93;;
19877;SDS011;10101;52.204;9.910;2023-01-31T05:04:16;7.20;;;1.80;;
19877;SDS011;10101;52.204;9.910;2023-01-31T05:06:42;9.57;;;1.40;;
19877;SDS011;10101;52.204;9.910;2023-01-31T05:09:09;13.87;;;2.47;;
19877;SDS011;10101;52.204;9.910;2023-01-31T05:11:36;10.07;;;1.43;;
19877;SDS011;10101;52.204;9.910;2023-01-31T05:14:05;7.17;;;1.97;;
19877;SDS011;10101;52.204;9.910;2023-01-31T05:18:59;13.03;;;2.13;;
19877;SDS011;10101;52.204;9.910;2023-01-31T05:21:25;15.77;;;1.30;;
19877;SDS011;10101;52.204;9.910;2023-01-31T05:23:53;10.57;;;1.50;;
19877;SDS011;10101;52.204;9.910;2023-01-31T05:26:19;9.00;;;1.60;;
19877;SDS011;10101;52.204;9.910;2023-01-31T05:28:46;6.63;;;1.50;;
19877;SDS011;10101;52.204;9.910;2023-01-31T05:31:14;8.67;;;1.13;;
19877;SDS011;10101;52.204;9.910;2023-01-31T05:33:41;10.83;;;1.97;;
19877;SDS011;10101;52.204;9.910;2023-01-31T05:36:08;7.13;;;1.57;;
19877;SDS011;10101;52.204;9.910;2023-01-31T05:38:35;10.67;;;2.00;;
19877;SDS011;10101;52.204;9.910;2023-01-31T05:41:02;9.53;;;1.93;;
19877;SDS011;10101;52.204;9.910;2023-01-31T05:43:28;8.53;;;1.83;;
19877;SDS011;10101;52.204;9.910;2023-01-31T05:45:55;9.07;;;1.43;;
19877;SDS011;10101;52.204;9.910;2023-01-31T05:48:23;6.60;;;1.60;;
19877;SDS011;10101;52.204;9.910;2023-01-31T05:50:50;9.67;;;2.23;;
19877;SDS011;10101;52.204;9.910;2023-01-31T05:53:17;6.83;;;1.97;;
19877;SDS011;10101;52.204;9.910;2023-01-31T05:55:43;7.87;;;1.70;;
19877;SDS011;10101;52.204;9.910;2023-01-31T05:58:10;9.57;;;1.63;;
19877;SDS011;10101;52.204;9.910;2023-01-31T06:00:37;12.47;;;1.93;;
19877;SDS011;10101;52.204;9.910;2023-01-31T06:03:03;8.90;;;1.73;;
19877;SDS011;10101;52.204;9.910;2023-01-31T06:05:31;10.03;;;1.87;;
19877;SDS011;10101;52.204;9.910;2023-01-31T06:07:58;11.20;;;2.10;;
19877;SDS011;10101;52.204;9.910;2023-01-31T06:10:25;8.20;;;2.03;;
19877;SDS011;10101;52.204;9.910;2023-01-31T06:12:52;9.33;;;2.03;;
19877;SDS011;10101;52.204;9.910;2023-01-31T06:15:18;16.27;;;2.57;;
19877;SDS011;10101;52.204;9.910;2023-01-31T06:17:45;10.23;;;2.40;;
19877;SDS011;10101;52.204;9.910;2023-01-31T06:20:12;12.80;;;1.90;;
19877;SDS011;10101;52.204;9.910;2023-01-31T06:22:41;8.17;;;2.00;;
19877;SDS011;10101;52.204;9.910;2023-01-31T06:25:08;12.23;;;2.33;;
19877;SDS011;10101;52.204;9.910;2023-01-31T06:27:35;15.73;;;4.37;;
19877;SDS011;10101;52.204;9.910;2023-01-31T06:30:02;11.80;;;2.60;;
19877;SDS011;10101;52.204;9.910;2023-01-31T06:32:29;12.13;;;2.47;;
19877;SDS011;10101;52.204;9.910;2023-01-31T06:34:56;11.57;;;2.43;;
19877;SDS011;10101;52.204;9.910;2023-01-31T06:37:23;12.10;;;2.40;;
19877;SDS011;10101;52.204;9.910;2023-01-31T06:39:51;7.93;;;2.23;;
19877;SDS011;10101;52.204;9.910;2023-01-31T06:42:18;16.57;;;2.60;;
19877;SDS011;10101;52.204;9.910;2023-01-31T06:44:45;8.40;;;2.00;;
19877;SDS011;10101;52.204;9.910;2023-01-31T06:47:11;8.53;;;2.23;;
19877;SDS011;10101;52.204;9.910;2023-01-31T06:49:38;8.50;;;2.50;;
19877;SDS011;10101;52.204;9.910;2023-01-31T06:52:05;20.07;;;2.60;;
19877;SDS011;10101;52.204;9.910;2023-01-31T06:54:32;8.60;;;2.50;;
19877;SDS011;10101;52.204;9.910;2023-01-31T06:57:00;15.37;;;3.00;;
19877;SDS011;10101;52.204;9.910;2023-01-31T06:59:26;9.63;;;2.60;;
19877;SDS011;10101;52.204;9.910;2023-01-31T07:01:53;10.47;;;2.50;;
19877;SDS011;10101;52.204;9.910;2023-01-31T07:04:20;8.33;;;2.63;;
19877;SDS011;10101;52.204;9.910;2023-01-31T07:06:47;15.00;;;2.60;;
19877;SDS011;10101;52.204;9.910;2023-01-31T07:09:13;10.97;;;2.63;;
19877;SDS011;10101;52.204;9.910;2023-01-31T07:11:40;12.77;;;2.60;;
19877;SDS011;10101;52.204;9.910;2023-01-31T07:14:08;8.73;;;2.87;;
19877;SDS011;10101;52.204;9.910;2023-01-31T07:16:35;14.30;;;3.40;;
19877;SDS011;10101;52.204;9.910;2023-01-31T07:19:02;9.70;;;2.90;;
19877;SDS011;10101;52.204;9.910;2023-01-31T07:21:29;10.80;;;3.07;;
19877;SDS011;10101;52.204;9.910;2023-01-31T07:23:57;13.30;;;3.50;;
19877;SDS011;10101;52.204;9.910;2023-01-31T07:26:24;18.33;;;3.43;;
19877;SDS011;10101;52.204;9.910;2023-01-31T07:28:50;10.83;;;3.77;;
19877;SDS011;10101;52.204;9.910;2023-01-31T07:31:19;16.63;;;4.30;;
19877;SDS011;10101;52.204;9.910;2023-01-31T07:33:45;14.53;;;3.87;;
19877;SDS011;10101;52.204;9.910;2023-01-31T07:36:13;19.53;;;4.67;;
19877;SDS011;10101;52.204;9.910;2023-01-31T07:38:43;16.97;;;4.90;;
19877;SDS011;10101;52.204;9.910;2023-01-31T07:41:10;16.60;;;4.47;;
19877;SDS011;10101;52.204;9.910;2023-01-31T07:43:37;12.07;;;4.80;;
19877;SDS011;10101;52.204;9.910;2023-01-31T07:46:05;14.97;;;4.47;;
19877;SDS011;10101;52.204;9.910;2023-01-31T07:48:35;15.37;;;4.40;;
19877;SDS011;10101;52.204;9.910;2023-01-31T07:51:03;14.10;;;4.50;;
19877;SDS011;10101;52.204;9.910;2023-01-31T07:53:31;12.30;;;4.13;;
19877;SDS011;10101;52.204;9.910;2023-01-31T07:56:06;19.93;;;4.53;;
19877;SDS011;10101;52.204;9.910;2023-01-31T07:58:34;12.00;;;4.20;;
19877;SDS011;10101;52.204;9.910;2023-01-31T08:01:01;14.23;;;4.77;;
19877;SDS011;10101;52.204;9.910;2023-01-31T08:03:47;12.30;;;4.20;;
19877;SDS011;10101;52.204;9.910;2023-01-31T08:06:14;13.47;;;4.87;;
19877;SDS011;10101;52.204;9.910;2023-01-31T08:08:41;15.60;;;4.50;;
19877;SDS011;10101;52.204;9.910;2023-01-31T08:11:08;13.93;;;4.67;;
19877;SDS011;10101;52.204;9.910;2023-01-31T08:13:35;8.20;;;3.90;;
19877;SDS011;10101;52.204;9.910;2023-01-31T08:16:03;15.47;;;4.50;;
19877;SDS011;10101;52.204;9.910;2023-01-31T08:18:31;13.03;;;4.53;;
19877;SDS011;10101;52.204;9.910;2023-01-31T08:20:59;15.43;;;4.90;;
19877;SDS011;10101;52.204;9.910;2023-01-31T08:23:26;15.10;;;5.07;;
19877;SDS011;10101;52.204;9.910;2023-01-31T08:25:58;12.20;;;4.90;;
19877;SDS011;10101;52.204;9.910;2023-01-31T08:28:25;17.77;;;5.03;;
19877;SDS011;10101;52.204;9.910;2023-01-31T08:30:52;13.70;;;4.80;;
19877;SDS011;10101;52.204;9.910;2023-01-31T08:33:18;11.97;;;3.50;;
19877;SDS011;10101;52.204;9.910;2023-01-31T08:35:45;16.47;;;5.37;;
19877;SDS011;10101;52.204;9.910;2023-01-31T08:38:13;13.03;;;4.20;;
19877;SDS011;10101;52.204;9.910;2023-01-31T08:40:40;10.60;;;4.67;;
19877;SDS011;10101;52.204;9.910;2023-01-31T08:43:07;9.53;;;3.73;;
19877;SDS011;10101;52.204;9.910;2023-01-31T08:45:34;15.80;;;4.23;;
19877;SDS011;10101;52.204;9.910;2023-01-31T08:48:02;7.50;;;3.27;;
19877;SDS011;10101;52.204;9.910;2023-01-31T08:50:30;11.10;;;4.00;;
19877;SDS011;10101;52.204;9.910;2023-01-31T08:52:57;10.00;;;3.90;;
19877;SDS011;10101;52.204;9.910;2023-01-31T08:55:27;5.83;;;2.87;;
19877;SDS011;10101;52.204;9.910;2023-01-31T08:57:54;12.07;;;3.97;;
19877;SDS011;10101;52.204;9.910;2023-01-31T09:00:21;10.03;;;4.03;;
19877;SDS011;10101;52.204;9.910;2023-01-31T09:02:50;18.57;;;4.60;;
19877;SDS011;10101;52.204;9.910;2023-01-31T09:05:17;12.37;;;4.33;;
19877;SDS011;10101;52.204;9.910;2023-01-31T09:07:44;9.73;;;3.57;;
19877;SDS011;10101;52.204;9.910;2023-01-31T09:10:11;8.60;;;3.80;;
19877;SDS011;10101;52.204;9.910;2023-01-31T09:12:39;16.83;;;4.77;;
19877;SDS011;10101;52.204;9.910;2023-01-31T09:15:06;12.43;;;4.90;;
19877;SDS011;10101;52.204;9.910;2023-01-31T09:17:33;12.40;;;4.10;;
19877;SDS011;10101;52.204;9.910;2023-01-31T09:20:00;9.87;;;3.90;;
19877;SDS011;10101;52.204;9.910;2023-01-31T09:22:30;17.17;;;6.37;;
19877;SDS011;10101;52.204;9.910;2023-01-31T09:24:57;12.30;;;4.33;;
19877;SDS011;10101;52.204;9.910;2023-01-31T09:27:24;14.07;;;4.53;;
19877;SDS011;10101;52.204;9.910;2023-01-31T09:29:52;14.07;;;4.30;;
19877;SDS011;10101;52.204;9.910;2023-01-31T09:32:18;10.23;;;4.10;;
19877;SDS011;10101;52.204;9.910;2023-01-31T09:34:45;10.33;;;4.33;;
19877;SDS011;10101;52.204;9.910;2023-01-31T09:37:13;15.00;;;4.87;;
19877;SDS011;10101;52.204;9.910;2023-01-31T09:39:39;18.87;;;4.97;;
19877;SDS011;10101;52.204;9.910;2023-01-31T09:42:08;12.40;;;4.53;;
19877;SDS011;10101;52.204;9.910;2023-01-31T09:44:45;11.47;;;3.37;;
19877;SDS011;10101;52.204;9.910;2023-01-31T09:47:21;9.50;;;3.73;;
19877;SDS011;10101;52.204;9.910;2023-01-31T09:49:53;19.23;;;4.97;;
19877;SDS011;10101;52.204;9.910;2023-01-31T09:52:24;12.80;;;4.47;;
19877;SDS011;10101;52.204;9.910;2023-01-31T09:54:53;14.60;;;5.17;;
19877;SDS011;10101;52.204;9.910;2023-01-31T09:57:22;15.70;;;4.57;;
19877;SDS011;10101;52.204;9.910;2023-01-31T09:59:58;11.80;;;5.23;;
19877;SDS011;10101;52.204;9.910;2023-01-31T10:05:44;13.50;;;4.37;;
19877;SDS011;10101;52.204;9.910;2023-01-31T10:08:17;16.90;;;5.40;;
19877;SDS011;10101;52.204;9.910;2023-01-31T10:10:52;9.03;;;5.00;;
19877;SDS011;10101;52.204;9.910;2023-01-31T10:13:23;12.93;;;4.97;;
19877;SDS011;10101;52.204;9.910;2023-01-31T10:15:57;12.27;;;4.70;;
19877;SDS011;10101;52.204;9.910;2023-01-31T10:18:29;13.37;;;4.57;;
19877;SDS011;10101;52.204;9.910;2023-01-31T10:21:00;8.63;;;4.20;;
19877;SDS011;10101;52.204;9.910;2023-01-31T10:23:33;8.57;;;3.30;;
19877;SDS011;10101;52.204;9.910;2023-01-31T10:26:05;9.07;;;4.43;;
19877;SDS011;10101;52.204;9.910;2023-01-31T10:28:37;6.53;;;3.73;;
19877;SDS011;10101;52.204;9.910;2023-01-31T10:31:11;9.00;;;3.67;;
19877;SDS011;10101;52.204;9.910;2023-01-31T10:33:51;7.50;;;4.07;;
19877;SDS011;10101;52.204;9.910;2023-01-31T10:36:24;7.87;;;3.60;;
19877;SDS011;10101;52.204;9.910;2023-01-31T10:38:56;9.87;;;3.80;;
19877;SDS011;10101;52.204;9.910;2023-01-31T10:41:33;9.83;;;3.93;;
19877;SDS011;10101;52.204;9.910;2023-01-31T10:44:09;13.63;;;3.43;;
19877;SDS011;10101;52.204;9.910;2023-01-31T10:46:46;4.97;;;3.57;;
19877;SDS011;10101;52.204;9.910;2023-01-31T10:49:13;8.27;;;4.00;;
19877;SDS011;10101;52.204;9.910;2023-01-31T10:51:48;11.93;;;3.50;;
19877;SDS011;10101;52.204;9.910;2023-01-31T10:54:33;8.63;;;3.23;;
19877;SDS011;10101;52.204;9.910;2023-01-31T10:57:11;7.30;;;2.93;;
19877;SDS011;10101;52.204;9.910;2023-01-31T10:59:39;7.43;;;2.70;;
19877;SDS011;10101;52.204;9.910;2023-01-31T11:02:13;4.97;;;2.47;;
19877;SDS011;10101;52.204;9.910;2023-01-31T11:04:44;7.60;;;2.73;;
19877;SDS011;10101;52.204;9.910;2023-01-31T11:07:11;9.27;;;2.90;;
19877;SDS011;10101;52.204;9.910;2023-01-31T11:09:38;5.40;;;2.70;;
19877;SDS011;10101;52.204;9.910;2023-01-31T11:12:08;5.53;;;2.20;;
19877;SDS011;10101;52.204;9.910;2023-01-31T11:14:34;6.27;;;3.20;;
19877;SDS011;10101;52.204;9.910;2023-01-31T11:17:02;5.10;;;2.30;;
19877;SDS011;10101;52.204;9.910;2023-01-31T11:19:34;3.80;;;2.63;;
19877;SDS011;10101;52.204;9.910;2023-01-31T11:22:05;4.73;;;2.67;;
19877;SDS011;10101;52.204;9.910;2023-01-31T11:24:33;7.30;;;2.73;;
19877;SDS011;10101;52.204;9.910;2023-01-31T11:27:06;9.47;;;3.17;;
19877;SDS011;10101;52.204;9.910;2023-01-31T11:29:38;4.20;;;2.70;;
19877;SDS011;10101;52.204;9.910;2023-01-31T11:32:11;5.77;;;2.73;;
19877;SDS011;10101;52.204;9.910;2023-01-31T11:34:54;7.77;;;3.10;;
19877;SDS011;10101;52.204;9.910;2023-01-31T11:37:23;4.37;;;2.17;;
19877;SDS011;10101;52.204;9.910;2023-01-31T11:39:53;5.37;;;3.10;;
19877;SDS011;10101;52.204;9.910;2023-01-31T11:42:21;6.37;;;2.47;;
19877;SDS011;10101;52.204;9.910;2023-01-31T11:44:54;7.20;;;3.47;;
19877;SDS011;10101;52.204;9.910;2023-01-31T11:47:24;3.67;;;2.73;;
19877;SDS011;10101;52.204;9.910;2023-01-31T11:50:06;4.40;;;2.80;;
19877;SDS011;10101;52.204;9.910;2023-01-31T11:52:43;8.37;;;2.90;;
19877;SDS011;10101;52.204;9.910;2023-01-31T11:55:12;4.73;;;3.03;;
19877;SDS011;10101;52.204;9.910;2023-01-31T11:57:42;6.50;;;3.10;;
19877;SDS011;10101;52.204;9.910;2023-01-31T12:00:18;6.63;;;2.90;;
19877;SDS011;10101;52.204;9.910;2023-01-31T12:02:48;11.07;;;3.20;;
19877;SDS011;10101;52.204;9.910;2023-01-31T12:05:28;6.23;;;3.00;;
19877;SDS011;10101;52.204;9.910;2023-01-31T12:08:01;7.23;;;3.50;;
19877;SDS011;10101;52.204;9.910;2023-01-31T12:10:30;7.77;;;3.80;;
19877;SDS011;10101;52.204;9.910;2023-01-31T12:12:59;7.53;;;3.27;;
19877;SDS011;10101;52.204;9.910;2023-01-31T12:15:29;10.17;;;3.90;;
19877;SDS011;10101;52.204;9.910;2023-01-31T12:17:57;7.23;;;3.57;;
19877;SDS011;10101;52.204;9.910;2023-01-31T12:20:36;4.23;;;2.73;;
19877;SDS011;10101;52.204;9.910;2023-01-31T12:23:11;5.90;;;3.97;;
19877;SDS011;10101;52.204;9.910;2023-01-31T12:25:53;11.13;;;4.00;;
19877;SDS011;10101;52.204;9.910;2023-01-31T12:28:31;6.47;;;3.27;;
19877;SDS011;10101;52.204;9.910;2023-01-31T12:31:15;11.73;;;3.50;;
19877;SDS011;10101;52.204;9.910;2023-01-31T12:34:03;7.07;;;4.10;;
19877;SDS011;10101;52.204;9.910;2023-01-31T12:36:52;6.33;;;3.30;;
19877;SDS011;10101;52.204;9.910;2023-01-31T12:39:40;5.07;;;3.73;;
19877;SDS011;10101;52.204;9.910;2023-01-31T12:42:24;9.60;;;4.20;;
19877;SDS011;10101;52.204;9.910;2023-01-31T12:45:00;6.77;;;4.00;;
19877;SDS011;10101;52.204;9.910;2023-01-31T12:47:44;7.97;;;4.83;;
19877;SDS011;10101;52.204;9.910;2023-01-31T12:50:25;7.53;;;3.87;;
19877;SDS011;10101;52.204;9.910;2023-01-31T12:53:16;5.43;;;3.33;;
19877;SDS011;10101;52.204;9.910;2023-01-31T12:56:11;13.37;;;4.20;;
19877;SDS011;10101;52.204;9.910;2023-01-31T12:58:49;7.80;;;4.60;;
19877;SDS011;10101;52.204;9.910;2023-01-31T13:01:24;11.67;;;5.00;;
19877;SDS011;10101;52.204;9.910;2023-01-31T13:04:04;12.13;;;6.20;;
19877;SDS011;10101;52.204;9.910;2023-01-31T13:06:51;5.87;;;3.93;;
19877;SDS011;10101;52.204;9.910;2023-01-31T13:09:24;6.97;;;3.97;;
19877;SDS011;10101;52.204;9.910;2023-01-31T13:11:54;6.50;;;4.63;;
19877;SDS011;10101;52.204;9.910;2023-01-31T13:14:25;9.40;;;5.77;;
19877;SDS011;10101;52.204;9.910;2023-01-31T13:16:55;10.53;;;5.00;;
19877;SDS011;10101;52.204;9.910;2023-01-31T13:19:25;8.17;;;4.47;;
19877;SDS011;10101;52.204;9.910;2023-01-31T13:21:55;12.13;;;6.17;;
19877;SDS011;10101;52.204;9.910;2023-01-31T13:24:26;8.83;;;5.33;;
19877;SDS011;10101;52.204;9.910;2023-01-31T13:26:58;7.77;;;5.93;;
19877;SDS011;10101;52.204;9.910;2023-01-31T13:29:31;8.27;;;5.27;;
19877;SDS011;10101;52.204;9.910;2023-01-31T13:32:02;6.37;;;4.77;;
19877;SDS011;10101;52.204;9.910;2023-01-31T13:34:35;8.63;;;5.00;;
19877;SDS011;10101;52.204;9.910;2023-01-31T13:37:09;8.47;;;5.37;;
19877;SDS011;10101;52.204;9.910;2023-01-31T13:39:43;6.07;;;4.53;;
19877;SDS011;10101;52.204;9.910;2023-01-31T13:42:14;7.53;;;4.83;;
19877;SDS011;10101;52.204;9.910;2023-01-31T13:44:42;8.67;;;4.87;;
19877;SDS011;10101;52.204;9.910;2023-01-31T13:47:12;5.83;;;4.63;;
19877;SDS011;10101;52.204;9.910;2023-01-31T13:49:42;7.20;;;4.87;;
19877;SDS011;10101;52.204;9.910;2023-01-31T13:52:15;12.63;;;4.67;;
19877;SDS011;10101;52.204;9.910;2023-01-31T13:54:47;10.23;;;4.50;;
19877;SDS011;10101;52.204;9.910;2023-01-31T13:57:22;7.30;;;3.87;;
19877;SDS011;10101;52.204;9.910;2023-01-31T13:59:51;11.03;;;3.97;;
19877;SDS011;10101;52.204;9.910;2023-01-31T14:02:19;6.40;;;4.40;;
19877;SDS011;10101;52.204;9.910;2023-01-31T14:04:46;6.27;;;3.80;;
19877;SDS011;10101;52.204;9.910;2023-01-31T14:07:15;8.03;;;4.67;;
19877;SDS011;10101;52.204;9.910;2023-01-31T14:12:46;4.10;;;3.70;;
19877;SDS011;10101;52.204;9.910;2023-01-31T14:15:45;4.73;;;3.37;;
19877;SDS011;10101;52.204;9.910;2023-01-31T14:18:13;3.47;;;3.17;;
19877;SDS011;10101;52.204;9.910;2023-01-31T14:24:18;3.80;;;2.50;;
19877;SDS011;10101;52.204;9.910;2023-01-31T14:27:00;3.47;;;2.53;;
19877;SDS011;10101;52.204;9.910;2023-01-31T14:29:40;5.17;;;3.13;;
19877;SDS011;10101;52.204;9.910;2023-01-31T14:32:12;3.30;;;2.47;;
19877;SDS011;10101;52.204;9.910;2023-01-31T14:34:41;4.80;;;2.87;;
19877;SDS011;10101;52.204;9.910;2023-01-31T14:37:14;4.00;;;3.20;;
19877;SDS011;10101;52.204;9.910;2023-01-31T14:40:08;5.77;;;3.30;;
19877;SDS011;10101;52.204;9.910;2023-01-31T14:42:53;4.10;;;2.90;;
19877;SDS011;10101;52.204;9.910;2023-01-31T14:45:53;5.37;;;3.20;;
19877;SDS011;10101;52.204;9.910;2023-01-31T14:48:41;4.93;;;3.13;;
19877;SDS011;10101;52.204;9.910;2023-01-31T14:51:28;3.97;;;2.90;;
19877;SDS011;10101;52.204;9.910;2023-01-31T14:54:11;2.90;;;2.30;;
19877;SDS011;10101;52.204;9.910;2023-01-31T14:56:59;3.57;;;2.70;;
19877;SDS011;10101;52.204;9.910;2023-01-31T14:59:51;3.80;;;2.93;;
19877;SDS011;10101;52.204;9.910;2023-01-31T15:02:23;4.40;;;3.03;;
19877;SDS011;10101;52.204;9.910;2023-01-31T15:05:05;6.30;;;3.43;;
19877;SDS011;10101;52.204;9.910;2023-01-31T15:07:36;5.23;;;3.50;;
19877;SDS011;10101;52.204;9.910;2023-01-31T15:16:20;3.57;;;3.27;;
19877;SDS011;10101;52.204;9.910;2023-01-31T15:18:51;6.13;;;2.80;;
19877;SDS011;10101;52.204;9.910;2023-01-31T15:21:22;7.60;;;3.90;;
19877;SDS011;10101;52.204;9.910;2023-01-31T15:23:52;4.73;;;3.57;;